CheckWX is a tool to help pilots better visualize weather data.  It is not intended as a substitute for an official pre-flight weather briefing.

03:37:27 UTC

KSEZ TAF
Sedona Airport
Sedona, Arizona, USA
KSEZ 162320Z 1700/1724 VRB05KT P6SM SCT200 FM170300 04010KT P6SM FEW200 FM171500 VRB05KT P6SM SCT200

Feb-17@
00:00 UTC

Feb-17 @ 00:00 UTC

Feb-17@
03:00 UTC

Feb-17 @ 03:00 UTC

KSEZ 162320Z 1700/1724 VRB05KT P6SM SCT200

Expired

Wind
  • Variable at 5 KTS
Cloud Levels
  • Scattered at 20,000' AGL

Feb-17@
03:00 UTC

Feb-17 @ 03:00 UTC

Feb-17@
15:00 UTC

Feb-17 @ 15:00 UTC

FM170300 04010KT P6SM FEW200

From

From Standard forecast or significant change

Wind
  • 040° at 10 KTS
Cloud Levels
  • Few at 20,000' AGL

Feb-17@
15:00 UTC

Feb-17 @ 15:00 UTC

Feb-18@
00:00 UTC

Feb-18 @ 00:00 UTC

FM171500 VRB05KT P6SM SCT200

From

From Standard forecast or significant change

Wind
  • Variable at 5 KTS
Cloud Levels
  • Scattered at 20,000' AGL